KDNS/DNS METAR and TAF weather

Enter ICAO airport designator
Station Type Date Time Source
KDNS METAR 2018/12/10 20:35 UTC NOAA

KDNS 102035Z AUTO 22010KT 10SM CLR M02/M07 A3018 RMK AO2


Station Type Date Time Source
KDNS Decoded METAR 2018/12/10 20:35 UTC NOAA

Denison, IA, United States (KDNS) 41-59N 095-23W
Dec 10, 2018 - 03:35 PM EST / 2018.12.10 2035 UTC
Wind: from the SW (220 degrees) at 12 MPH (10 KT):0
Visibility: 10 mile(s):0
Sky conditions: clear
Temperature: 28 F (-2 C)
Windchill: 17 F (-8 C):1
Dew Point: 19 F (-7 C)
Relative Humidity: 68%
Pressure (altimeter): 30.18 in. Hg (1022 hPa)
ob: KDNS 102035Z AUTO 22010KT 10SM CLR M02/M07 A3018 RMK AO2
cycle: 20

Station Type Date Time Source
KDNS TAF UTC NOAA

Error!


Example: see airport list